Flight Track Log - Related Links

Times and Time Zones

All times are in EDT time to prevent confusion due to time zone crossing. See the CTL18 flight status page for this flight to view local times or setup timezone preferences in your user account.

Time Position Orientation Groundspeed Altitude Reporting Facility
EDT Latitude Longitude Course Direction KTS MPH feet Rate Location/Type
Tue 09:00:38 PM 42.2664 -83.5211 351° North 138 159 1,700  Level Cleveland Center
Tue 09:01:33 PM 42.2694 -83.5633 276° West 131 151 2,400 621 Climbing Cleveland Center
Tue 09:02:34 PM 42.2394 -83.5956 218° Southwest 137 158 2,900 298 Climbing Cleveland Center
Tue 09:03:34 PM 42.1992 -83.6131 198° South 166 191 3,000 50 Climbing Cleveland Center
Tue 09:04:35 PM 42.1517 -83.6053 173° South 172 198 3,000  Level Cleveland Center
Tue 09:05:42 PM 42.1017 -83.5944 171° South 173 199 3,000 -47 Level Cleveland Center
Tue 09:06:42 PM 42.0633 -83.5481 138° Southeast 185 213 2,900  Descending Cleveland Center
Tue 09:07:43 PM 42.0464 -83.4828 109° East 185 213 3,000 49 Climbing Cleveland Center
Tue 09:08:44 PM 42.0292 -83.4150 109° East 184 212 3,000  Level Cleveland Center
Tue 09:09:44 PM 42.0097 -83.3553 114° Southeast 188 216 3,000 99 Level Cleveland Center
Tue 09:10:45 PM 41.9883 -83.2903 114° Southeast 185 213 3,200 246 Climbing Cleveland Center
Tue 09:11:46 PM 41.9711 -83.2308 111° Southeast 170 196 3,500 347 Climbing Cleveland Center
Tue 09:12:46 PM 41.9556 -83.1744 110° East 170 196 3,900 378 Climbing Cleveland Center
Tue 09:13:53 PM 41.9344 -83.1036 112° Southeast 173 199 4,300 393 Climbing Cleveland Center
Tue 09:14:48 PM 41.9189 -83.0472 110° East 174 200 4,700 365 Climbing Cleveland Center
Tue 09:15:48 PM 41.9078 -82.9828 103° East 177 204 5,000 180 Climbing Cleveland Center
Tue 09:16:28 PM 41.8917 -82.9486 122° Southeast 187 215 5,000  Level Cleveland Center
Tue 09:18:05 PM 41.8608 -82.8331 110° East 190 219 5,000  Level Cleveland Center
Tue 09:18:42 PM 41.8492 -82.7908 110° East 191 220 5,000  Level Cleveland Center
Tue 09:19:48 PM 41.8275 -82.7206 112° Southeast 190 219 5,000  Level Cleveland Center
Tue 09:20:49 PM 41.8078 -82.6558 112° Southeast 190 219 5,000 -47 Level Cleveland Center
Tue 09:21:56 PM 41.7842 -82.5797 113° Southeast 193 222 4,900 -180 Descending Cleveland Center
Tue 09:23:02 PM 41.7603 -82.5067 114° Southeast 199 229 4,600 -330 Descending Cleveland Center
Tue 09:23:45 PM 41.7467 -82.4589 111° Southeast 200 230 4,300 -466 Descending Cleveland Center
Tue 09:24:58 PM 41.7208 -82.3747 112° Southeast 202 232 3,700 -472 Descending Cleveland Center
Tue 09:25:52 PM 41.7031 -82.3075 109° East 202 232 3,300 -365 Descending Cleveland Center
Tue 09:26:53 PM 41.6831 -82.2431 113° Southeast 197 227 3,000 -149 Descending Cleveland Center
Tue 09:27:53 PM 41.6633 -82.1786 112° Southeast 178 205 3,000  Level Cleveland Center
Tue 09:28:54 PM 41.6453 -82.1142 111° Southeast 181 208 3,000 49 Level Cleveland Center
Tue 09:29:55 PM 41.6253 -82.0553 114° Southeast 177 204 3,100  Climbing Cleveland Center
Tue 09:30:55 PM 41.6072 -81.9911 111° Southeast 180 207 3,000 -149 Descending Cleveland Center
Tue 09:31:56 PM 41.5894 -81.9297 111° Southeast 184 212 2,800 -344 Descending Cleveland Center
Tue 09:32:57 PM 41.5756 -81.8656 106° East 182 209 2,300 -496 Descending Cleveland Center
Tue 09:33:57 PM 41.5575 -81.8014 111° Southeast 165 190 1,800 -298 Descending Cleveland Center
Tue 09:34:58 PM 41.5517 -81.7483 98° East 144 166 1,700 -246 Descending Cleveland Center
Tue 09:35:59 PM 41.5481 -81.6983 95° East 128 147 1,300 -397 Descending Cleveland Center
Tue 09:36:59 PM 41.5294 -81.6678 129° Southeast 91 105 900 -400 Descending Cleveland Center
Tue 09:38:00 PM 41.5167 -81.6667 124° Southeast  Level FlightAware Approximate
Tue 09:45:00 PM 41.5175 -81.6833 124° Southeast  Level Estimated

Login

Don't have an account? Register now (free) for customized features, flight alerts, and more!